createdAt,value
2022-08-07T00:04:16.851Z,15.43
2022-08-07T00:09:24.050Z,15.42
2022-08-07T00:14:32.248Z,15.42
2022-08-07T00:19:39.075Z,15.39
2022-08-07T00:24:47.927Z,15.39
2022-08-07T00:29:54.857Z,15.42
2022-08-07T00:35:02.001Z,15.46
2022-08-07T00:40:09.477Z,15.4
2022-08-07T00:45:18.091Z,15.46
2022-08-07T00:50:25.498Z,15.6
2022-08-07T00:55:32.942Z,15.7
2022-08-07T01:00:40.496Z,15.76
2022-08-07T01:05:48.875Z,15.84
2022-08-07T01:10:55.574Z,15.93
2022-08-07T01:16:03.915Z,15.9
2022-08-07T01:21:11.065Z,15.92
2022-08-07T01:26:34.928Z,15.96
2022-08-07T01:31:41.684Z,15.97
2022-08-07T01:36:49.369Z,15.93
2022-08-07T01:41:57.976Z,15.94
2022-08-07T01:47:06.161Z,15.94
2022-08-07T01:52:14.795Z,15.94
2022-08-07T01:57:21.498Z,15.94
2022-08-07T02:02:28.703Z,15.89
2022-08-07T02:09:07.665Z,15.86
2022-08-07T02:14:14.128Z,15.68
2022-08-07T02:19:22.251Z,15.51
2022-08-07T02:24:30.810Z,15.33
2022-08-07T02:29:39.061Z,15.25
2022-08-07T02:34:46.623Z,15.16
2022-08-07T02:39:53.211Z,15.22
2022-08-07T02:45:01.784Z,15.2
2022-08-07T02:50:08.864Z,15.17
2022-08-07T02:55:21.818Z,15.36
2022-08-07T03:00:28.402Z,15.36
2022-08-07T03:05:36.739Z,15.28
2022-08-07T03:10:44.079Z,15.16
2022-08-07T03:15:53.051Z,15.08
2022-08-07T03:21:01.129Z,15.02
2022-08-07T03:26:09.061Z,14.98
2022-08-07T03:31:17.336Z,14.99
2022-08-07T03:36:25.328Z,14.98
2022-08-07T03:41:32.055Z,15.0
2022-08-07T03:46:39.512Z,15.04
2022-08-07T03:51:47.427Z,15.11
2022-08-07T03:56:54.613Z,15.16
2022-08-07T04:02:02.435Z,15.18
2022-08-07T04:07:09.008Z,15.17
2022-08-07T04:12:16.856Z,15.21
2022-08-07T04:17:25.293Z,15.29
2022-08-07T04:22:33.358Z,15.36
2022-08-07T04:27:40.339Z,15.43
2022-08-07T04:32:48.789Z,15.49
2022-08-07T04:37:57.271Z,15.56
2022-08-07T04:43:05.109Z,15.67
2022-08-07T04:48:12.795Z,15.76
2022-08-07T04:53:21.357Z,15.82
2022-08-07T04:58:28.725Z,15.93
2022-08-07T05:03:37.691Z,16.06
2022-08-07T05:08:45.036Z,16.21
2022-08-07T05:13:53.120Z,16.28
2022-08-07T05:19:00.483Z,16.28
2022-08-07T05:24:09.489Z,16.35
2022-08-07T05:29:17.034Z,16.48
2022-08-07T05:34:25.229Z,16.6
2022-08-07T05:39:34.096Z,16.76
2022-08-07T05:44:41.819Z,16.88
2022-08-07T05:49:49.192Z,17.06
2022-08-07T05:54:57.877Z,17.38
2022-08-07T06:00:06.412Z,17.69
2022-08-07T06:05:13.460Z,17.9
2022-08-07T06:10:21.041Z,18.08
2022-08-07T06:15:29.647Z,18.49
2022-08-07T06:20:36.054Z,19.0
2022-08-07T06:25:43.903Z,19.42
2022-08-07T06:30:52.885Z,19.54
2022-08-07T06:35:59.804Z,19.58
2022-08-07T06:41:08.127Z,19.89
2022-08-07T06:46:16.191Z,20.44
2022-08-07T06:51:24.154Z,21.11
2022-08-07T06:56:32.380Z,21.98
2022-08-07T07:01:41.204Z,22.6
2022-08-07T07:06:48.979Z,23.69
2022-08-07T07:11:56.647Z,24.74
2022-08-07T07:17:06.066Z,24.54
2022-08-07T07:22:12.691Z,24.62
2022-08-07T07:27:21.045Z,24.66
2022-08-07T07:32:42.746Z,23.66
2022-08-07T07:38:02.837Z,22.7
2022-08-07T07:43:11.638Z,22.42
2022-08-07T07:48:21.279Z,22.08
2022-08-07T07:53:29.203Z,22.12
2022-08-07T07:58:37.018Z,21.92
2022-08-07T08:03:44.859Z,21.88
2022-08-07T08:08:52.102Z,21.93
2022-08-07T08:13:59.749Z,22.12
2022-08-07T08:19:07.804Z,23.18
2022-08-07T08:24:15.775Z,24.14
2022-08-07T08:29:23.755Z,24.64
2022-08-07T08:34:31.294Z,23.9
2022-08-07T08:39:39.729Z,23.53
2022-08-07T08:44:47.627Z,23.97
2022-08-07T08:49:55.833Z,23.97
2022-08-07T08:55:02.753Z,24.08
2022-08-07T09:00:10.935Z,24.42
2022-08-07T09:05:20.085Z,24.72
2022-08-07T09:10:27.447Z,24.48
2022-08-07T09:15:35.980Z,24.58
2022-08-07T09:20:49.689Z,24.99
2022-08-07T09:25:57.342Z,25.33
2022-08-07T09:31:04.143Z,26.07
2022-08-07T09:36:13.047Z,26.34
2022-08-07T09:41:21.961Z,26.9
2022-08-07T09:46:29.344Z,26.81
2022-08-07T09:51:37.693Z,25.88
2022-08-07T09:56:44.382Z,25.48
2022-08-07T10:01:52.729Z,25.18
2022-08-07T10:07:01.450Z,24.64
2022-08-07T10:12:09.239Z,24.46
2022-08-07T10:17:17.293Z,24.78
2022-08-07T10:22:25.725Z,24.73
2022-08-07T10:27:32.959Z,24.66
2022-08-07T10:32:39.923Z,24.43
2022-08-07T10:37:47.899Z,24.7
2022-08-07T10:42:55.660Z,24.73
2022-08-07T10:48:02.764Z,24.67
2022-08-07T10:53:10.072Z,24.66
2022-08-07T10:58:17.963Z,24.78
2022-08-07T11:03:24.376Z,24.72
2022-08-07T11:08:32.736Z,24.66
2022-08-07T11:13:39.635Z,25.03
2022-08-07T11:18:47.642Z,25.34
2022-08-07T11:23:53.818Z,25.43
2022-08-07T11:29:01.479Z,25.88
2022-08-07T11:34:08.832Z,25.66
2022-08-07T11:39:16.727Z,25.36
2022-08-07T11:44:24.315Z,25.18
2022-08-07T11:49:37.496Z,24.84
2022-08-07T11:54:45.530Z,24.44
2022-08-07T11:59:52.601Z,24.44
2022-08-07T12:05:00.372Z,24.44
2022-08-07T12:10:08.187Z,24.58
2022-08-07T12:15:16.780Z,24.73
2022-08-07T12:20:24.939Z,24.89
2022-08-07T12:25:34.172Z,25.0
2022-08-07T12:30:41.497Z,25.08
2022-08-07T12:35:54.421Z,25.34
2022-08-07T12:41:00.379Z,25.33
2022-08-07T12:46:08.152Z,25.56
2022-08-07T12:51:15.355Z,25.71
2022-08-07T12:56:23.238Z,25.81
2022-08-07T13:01:31.320Z,25.49
2022-08-07T13:06:38.469Z,25.33
2022-08-07T13:11:45.532Z,25.22
2022-08-07T13:16:53.385Z,25.02
2022-08-07T13:22:01.244Z,25.14
2022-08-07T13:27:09.039Z,25.48
2022-08-07T13:32:16.728Z,25.88
2022-08-07T13:37:24.694Z,25.88
2022-08-07T13:42:33.692Z,26.11
2022-08-07T13:47:41.310Z,25.89
2022-08-07T13:52:47.582Z,26.08
2022-08-07T13:57:55.738Z,26.35
2022-08-07T14:03:02.885Z,26.58
2022-08-07T14:08:10.101Z,26.16
2022-08-07T14:13:17.696Z,26.02
2022-08-07T14:18:25.287Z,26.03
2022-08-07T14:23:32.732Z,25.97
2022-08-07T14:28:40.596Z,25.76
2022-08-07T14:33:46.492Z,25.7
2022-08-07T14:39:02.158Z,25.86
2022-08-07T14:44:09.179Z,25.7
2022-08-07T14:49:17.637Z,25.49
2022-08-07T14:54:24.505Z,25.46
2022-08-07T14:59:32.065Z,25.39
2022-08-07T15:04:39.330Z,25.23
2022-08-07T15:09:47.130Z,25.07
2022-08-07T15:14:55.441Z,25.02
2022-08-07T15:20:03.416Z,24.92
2022-08-07T15:25:11.278Z,24.92
2022-08-07T15:30:19.036Z,24.78
2022-08-07T15:35:26.299Z,24.67
2022-08-07T15:40:33.891Z,24.64
2022-08-07T15:45:41.461Z,24.82
2022-08-07T15:50:49.593Z,24.66
2022-08-07T15:55:57.696Z,24.66
2022-08-07T16:01:06.547Z,24.66
2022-08-07T16:06:15.662Z,24.38
2022-08-07T16:11:22.944Z,23.89
2022-08-07T16:16:37.978Z,23.52
2022-08-07T16:21:45.592Z,23.19
2022-08-07T16:26:53.750Z,23.01
2022-08-07T16:32:00.730Z,22.93
2022-08-07T16:37:08.903Z,22.67
2022-08-07T16:42:16.821Z,22.54
2022-08-07T16:47:23.742Z,22.4
2022-08-07T16:52:31.541Z,22.25
2022-08-07T16:57:38.135Z,22.14
2022-08-07T17:02:45.333Z,22.04
2022-08-07T17:07:52.589Z,21.88
2022-08-07T17:12:59.106Z,21.68
2022-08-07T17:18:07.260Z,21.52
2022-08-07T17:23:15.617Z,21.39
2022-08-07T17:28:23.264Z,21.24
2022-08-07T17:33:30.392Z,21.04
2022-08-07T17:38:38.165Z,20.88
2022-08-07T17:43:46.373Z,20.72
2022-08-07T17:48:53.332Z,20.54
2022-08-07T17:54:02.062Z,20.46
2022-08-07T17:59:10.018Z,20.36
2022-08-07T18:04:26.325Z,20.3
2022-08-07T18:09:33.016Z,20.23
2022-08-07T18:14:40.598Z,20.12
2022-08-07T18:19:49.134Z,20.02
2022-08-07T18:24:58.326Z,19.91
2022-08-07T18:30:06.255Z,19.79
2022-08-07T18:35:14.117Z,19.73
2022-08-07T18:40:21.336Z,19.68
2022-08-07T18:45:29.175Z,19.62
2022-08-07T18:50:36.457Z,19.51
2022-08-07T18:55:58.939Z,19.4
2022-08-07T19:01:05.499Z,19.34
2022-08-07T19:06:13.298Z,19.23
2022-08-07T19:11:20.839Z,19.17
2022-08-07T19:16:28.383Z,19.11
2022-08-07T19:21:36.448Z,19.03
2022-08-07T19:26:43.795Z,18.94
2022-08-07T19:31:53.174Z,18.82
2022-08-07T19:37:00.984Z,18.76
2022-08-07T19:42:08.861Z,18.76
2022-08-07T19:47:16.486Z,18.68
2022-08-07T19:52:26.390Z,18.59
2022-08-07T19:57:33.657Z,18.48
2022-08-07T20:02:42.234Z,18.36
2022-08-07T20:07:50.100Z,18.32
2022-08-07T20:12:58.207Z,18.28
2022-08-07T20:18:06.291Z,18.22
2022-08-07T20:23:12.888Z,18.17
2022-08-07T20:28:21.202Z,18.15
2022-08-07T20:33:28.551Z,18.09
2022-08-07T20:38:37.082Z,18.02
2022-08-07T20:43:45.354Z,17.99
2022-08-07T20:48:52.578Z,18.0
2022-08-07T20:54:01.623Z,17.97
2022-08-07T20:59:16.890Z,17.97
2022-08-07T21:04:23.838Z,17.97
2022-08-07T21:09:32.064Z,17.98
2022-08-07T21:14:39.566Z,17.97
2022-08-07T21:19:46.139Z,17.94
2022-08-07T21:24:53.705Z,17.86
2022-08-07T21:30:01.644Z,17.84
2022-08-07T21:35:09.641Z,17.78
2022-08-07T21:40:17.496Z,17.74
2022-08-07T21:45:24.096Z,17.66
2022-08-07T21:50:33.161Z,17.59
2022-08-07T21:55:40.381Z,17.54
2022-08-07T22:00:47.788Z,17.43
2022-08-07T22:05:55.430Z,17.51
2022-08-07T22:11:03.688Z,17.53
2022-08-07T22:16:11.846Z,17.51
2022-08-07T22:21:20.022Z,17.47
2022-08-07T22:26:27.926Z,17.46
2022-08-07T22:31:35.448Z,17.44
2022-08-07T22:36:42.452Z,17.47
2022-08-07T22:41:50.093Z,17.41
2022-08-07T22:46:59.275Z,17.41
2022-08-07T22:52:06.279Z,17.4
2022-08-07T22:57:14.814Z,17.36
2022-08-07T23:02:22.408Z,17.3
2022-08-07T23:07:30.473Z,17.23
2022-08-07T23:12:37.337Z,17.14
2022-08-07T23:17:43.927Z,17.1
2022-08-07T23:22:51.726Z,17.08
2022-08-07T23:27:58.941Z,17.1
2022-08-07T23:33:06.781Z,17.14
2022-08-07T23:38:14.649Z,17.14
2022-08-07T23:43:22.392Z,17.1
2022-08-07T23:48:30.282Z,17.02
2022-08-07T23:53:37.831Z,16.98
2022-08-07T23:58:45.624Z,16.98
